KBFF/BFF METAR and TAF weather

Enter ICAO airport designator
Station Type Date Time Source
KBFF METAR 2019/02/23 16:53 UTC NOAA

KBFF 231653Z AUTO 30014G21KT 10SM CLR M04/M09 A2989 RMK AO2 SLP163 T10391094


Station Type Date Time Source
KBFF Decoded METAR 2019/02/23 16:53 UTC NOAA

SCOTTSBLUFF HEILIG FIELD, NE, United States (KBFF) 41-52N 103-36W 1203M
Feb 23, 2019 - 11:53 AM EST / 2019.02.23 1653 UTC
Wind: from the WNW (300 degrees) at 16 MPH (14 KT) gusting to 24 MPH (21 KT):0
Visibility: 10 mile(s):0
Sky conditions: clear
Temperature: 25.0 F (-3.9 C)
Windchill: 12 F (-11 C):1
Dew Point: 15.1 F (-9.4 C)
Relative Humidity: 65%
Pressure (altimeter): 29.89 in. Hg (1012 hPa)
ob: KBFF 231653Z AUTO 30014G21KT 10SM CLR M04/M09 A2989 RMK AO2 SLP163 T10391094
cycle: 17

Station Type Date Time Source
KBFF TAF 2019/02/23 14:10 UTC NOAA

TAF
AMD KBFF 231407Z 2314/2412 30005KT P6SM SCT020
FM231500 33009KT P6SM SCT050
FM231800 31015G25KT P6SM SCT060
FM240100 31011KT P6SM BKN050


Example: see airport list